sensor_id;sensor_type;location;lat;lon;timestamp;pressure;altitude;pressure_sealevel;temperature;humidity
14273;BME280;7220;49.450;11.052;2022-08-01T00:03:47;97969.56;;;21.84;53.07
14273;BME280;7220;49.450;11.052;2022-08-01T00:07:47;97976.31;;;21.80;53.03
14273;BME280;7220;49.450;11.052;2022-08-01T00:11:48;97987.44;;;21.77;53.67
14273;BME280;7220;49.450;11.052;2022-08-01T00:15:48;97986.25;;;21.71;53.81
14273;BME280;7220;49.450;11.052;2022-08-01T00:19:49;97987.56;;;21.67;53.75
14273;BME280;7220;49.450;11.052;2022-08-01T00:23:49;97983.09;;;21.57;54.45
14273;BME280;7220;49.450;11.052;2022-08-01T00:27:50;97972.88;;;21.51;54.42
14273;BME280;7220;49.450;11.052;2022-08-01T00:31:50;97992.09;;;21.48;54.46
14273;BME280;7220;49.450;11.052;2022-08-01T00:35:51;97991.44;;;21.46;54.88
14273;BME280;7220;49.450;11.052;2022-08-01T00:39:52;97991.03;;;21.41;54.84
14273;BME280;7220;49.450;11.052;2022-08-01T00:43:52;97990.50;;;21.37;54.96
14273;BME280;7220;49.450;11.052;2022-08-01T00:47:52;97979.63;;;21.29;55.33
14273;BME280;7220;49.450;11.052;2022-08-01T00:51:53;97996.47;;;21.23;55.41
14273;BME280;7220;49.450;11.052;2022-08-01T00:55:54;97991.34;;;21.20;55.59
14273;BME280;7220;49.450;11.052;2022-08-01T00:59:55;97988.13;;;21.16;56.06
14273;BME280;7220;49.450;11.052;2022-08-01T01:03:56;97987.75;;;21.11;56.08
14273;BME280;7220;49.450;11.052;2022-08-01T01:16:10;97991.84;;;20.97;56.74
14273;BME280;7220;49.450;11.052;2022-08-01T01:20:13;97995.84;;;20.93;56.93
14273;BME280;7220;49.450;11.052;2022-08-01T01:28:35;98017.91;;;20.88;56.83
14273;BME280;7220;49.450;11.052;2022-08-01T01:32:44;98006.56;;;20.85;57.64
14273;BME280;7220;49.450;11.052;2022-08-01T01:36:49;98009.88;;;20.78;57.55
14273;BME280;7220;49.450;11.052;2022-08-01T01:40:53;98003.25;;;20.73;57.72
14273;BME280;7220;49.450;11.052;2022-08-01T01:44:56;97997.25;;;20.69;57.90
14273;BME280;7220;49.450;11.052;2022-08-01T01:48:58;98001.25;;;20.65;57.78
14273;BME280;7220;49.450;11.052;2022-08-01T01:52:59;98004.81;;;20.65;57.89
14273;BME280;7220;49.450;11.052;2022-08-01T01:57:03;98018.78;;;20.61;58.21
14273;BME280;7220;49.450;11.052;2022-08-01T02:01:07;98018.78;;;20.61;58.50
14273;BME280;7220;49.450;11.052;2022-08-01T02:05:10;98030.13;;;20.64;58.81
14273;BME280;7220;49.450;11.052;2022-08-01T02:09:14;98029.13;;;20.65;58.17
14273;BME280;7220;49.450;11.052;2022-08-01T02:13:16;98032.09;;;20.62;58.53
14273;BME280;7220;49.450;11.052;2022-08-01T02:17:18;98034.66;;;20.64;58.80
14273;BME280;7220;49.450;11.052;2022-08-01T02:21:40;98051.00;;;20.62;58.75
14273;BME280;7220;49.450;11.052;2022-08-01T02:25:48;98051.00;;;20.62;58.84
14273;BME280;7220;49.450;11.052;2022-08-01T02:30:02;98051.16;;;20.61;58.55
14273;BME280;7220;49.450;11.052;2022-08-01T02:34:06;98054.00;;;20.59;58.92
14273;BME280;7220;49.450;11.052;2022-08-01T02:38:10;98054.31;;;20.56;58.97
14273;BME280;7220;49.450;11.052;2022-08-01T02:42:14;98059.88;;;20.55;59.04
14273;BME280;7220;49.450;11.052;2022-08-01T02:46:39;98062.00;;;20.51;59.02
14273;BME280;7220;49.450;11.052;2022-08-01T02:50:45;98062.00;;;20.51;59.06
14273;BME280;7220;49.450;11.052;2022-08-01T02:54:50;98061.59;;;20.46;59.46
14273;BME280;7220;49.450;11.052;2022-08-01T02:58:52;98059.88;;;20.45;59.29
14273;BME280;7220;49.450;11.052;2022-08-01T03:02:54;98068.00;;;20.45;60.02
14273;BME280;7220;49.450;11.052;2022-08-01T03:06:56;98063.47;;;20.45;60.19
14273;BME280;7220;49.450;11.052;2022-08-01T03:10:59;98060.22;;;20.42;60.11
14273;BME280;7220;49.450;11.052;2022-08-01T03:15:03;98061.91;;;20.43;60.02
14273;BME280;7220;49.450;11.052;2022-08-01T03:19:07;98068.44;;;20.40;60.26
14273;BME280;7220;49.450;11.052;2022-08-01T03:23:10;98068.59;;;20.39;60.75
14273;BME280;7220;49.450;11.052;2022-08-01T03:27:11;98065.19;;;20.37;61.25
14273;BME280;7220;49.450;11.052;2022-08-01T03:31:14;98063.09;;;20.30;61.62
14273;BME280;7220;49.450;11.052;2022-08-01T03:35:16;98062.53;;;20.27;61.74
14273;BME280;7220;49.450;11.052;2022-08-01T03:39:18;98067.38;;;20.23;62.53
14273;BME280;7220;49.450;11.052;2022-08-01T03:43:29;98074.75;;;20.21;62.87
14273;BME280;7220;49.450;11.052;2022-08-01T03:47:34;98074.91;;;20.20;62.39
14273;BME280;7220;49.450;11.052;2022-08-01T03:51:37;98080.47;;;20.18;62.85
14273;BME280;7220;49.450;11.052;2022-08-01T03:55:39;98088.84;;;20.15;63.07
14273;BME280;7220;49.450;11.052;2022-08-01T03:59:41;98085.44;;;20.13;64.06
14273;BME280;7220;49.450;11.052;2022-08-01T04:03:43;98091.13;;;20.10;63.83
14273;BME280;7220;49.450;11.052;2022-08-01T04:07:49;98093.66;;;20.11;63.81
14273;BME280;7220;49.450;11.052;2022-08-01T04:11:56;98099.34;;;20.08;64.77
14273;BME280;7220;49.450;11.052;2022-08-01T04:15:56;98091.69;;;20.04;64.88
14273;BME280;7220;49.450;11.052;2022-08-01T04:19:57;98101.38;;;20.06;64.95
14273;BME280;7220;49.450;11.052;2022-08-01T04:24:07;98077.53;;;19.92;65.61
14273;BME280;7220;49.450;11.052;2022-08-01T04:28:10;98111.00;;;20.09;65.74
14273;BME280;7220;49.450;11.052;2022-08-01T04:32:18;98108.31;;;20.09;65.83
14273;BME280;7220;49.450;11.052;2022-08-01T04:36:23;98114.25;;;20.12;66.63
14273;BME280;7220;49.450;11.052;2022-08-01T04:40:24;98113.56;;;20.10;66.84
14273;BME280;7220;49.450;11.052;2022-08-01T04:44:26;98126.59;;;20.15;66.75
14273;BME280;7220;49.450;11.052;2022-08-01T04:48:28;98131.00;;;20.16;66.73
14273;BME280;7220;49.450;11.052;2022-08-01T04:52:36;98129.03;;;20.18;67.33
14273;BME280;7220;49.450;11.052;2022-08-01T04:56:37;98134.97;;;20.22;67.46
14273;BME280;7220;49.450;11.052;2022-08-01T05:00:38;98142.09;;;20.23;67.48
14273;BME280;7220;49.450;11.052;2022-08-01T05:04:39;98140.22;;;20.23;68.12
14273;BME280;7220;49.450;11.052;2022-08-01T05:08:40;98140.50;;;20.20;68.25
14273;BME280;7220;49.450;11.052;2022-08-01T05:12:41;98137.69;;;20.22;68.13
14273;BME280;7220;49.450;11.052;2022-08-01T05:16:41;98145.91;;;20.30;68.71
14273;BME280;7220;49.450;11.052;2022-08-01T05:20:42;98150.16;;;20.32;68.29
14273;BME280;7220;49.450;11.052;2022-08-01T05:24:42;98150.69;;;20.36;68.94
14273;BME280;7220;49.450;11.052;2022-08-01T05:28:43;98148.84;;;20.37;68.56
14273;BME280;7220;49.450;11.052;2022-08-01T05:32:43;98145.88;;;20.40;69.03
14273;BME280;7220;49.450;11.052;2022-08-01T05:36:44;98158.06;;;20.44;69.24
14273;BME280;7220;49.450;11.052;2022-08-01T05:40:44;98155.22;;;20.45;69.37
14273;BME280;7220;49.450;11.052;2022-08-01T05:44:45;98163.16;;;20.47;69.82
14273;BME280;7220;49.450;11.052;2022-08-01T05:48:45;98160.19;;;20.50;69.15
14273;BME280;7220;49.450;11.052;2022-08-01T05:52:46;98154.34;;;20.55;70.00
14273;BME280;7220;49.450;11.052;2022-08-01T05:56:46;98166.00;;;20.55;69.81
14273;BME280;7220;49.450;11.052;2022-08-01T06:00:46;98159.00;;;20.62;69.87
14273;BME280;7220;49.450;11.052;2022-08-01T06:04:47;98155.56;;;20.70;69.76
14273;BME280;7220;49.450;11.052;2022-08-01T06:08:47;98151.72;;;20.83;70.10
14273;BME280;7220;49.450;11.052;2022-08-01T06:12:48;98152.66;;;20.91;69.99
14273;BME280;7220;49.450;11.052;2022-08-01T06:16:48;98159.84;;;21.01;69.56
14273;BME280;7220;49.450;11.052;2022-08-01T06:20:48;98154.88;;;21.06;69.54
14273;BME280;7220;49.450;11.052;2022-08-01T06:24:49;98170.03;;;21.17;69.43
14273;BME280;7220;49.450;11.052;2022-08-01T06:28:49;98170.25;;;21.23;69.80
14273;BME280;7220;49.450;11.052;2022-08-01T06:32:50;98178.16;;;21.35;70.12
14273;BME280;7220;49.450;11.052;2022-08-01T06:36:50;98170.16;;;21.43;69.47
14273;BME280;7220;49.450;11.052;2022-08-01T06:40:51;98171.25;;;21.50;69.77
14273;BME280;7220;49.450;11.052;2022-08-01T06:44:51;98190.00;;;21.62;69.10
14273;BME280;7220;49.450;11.052;2022-08-01T06:48:52;98182.25;;;21.67;68.92
14273;BME280;7220;49.450;11.052;2022-08-01T06:52:52;98182.50;;;21.73;68.71
14273;BME280;7220;49.450;11.052;2022-08-01T06:56:52;98179.63;;;21.75;68.00
14273;BME280;7220;49.450;11.052;2022-08-01T07:00:53;98180.41;;;21.85;67.50
14273;BME280;7220;49.450;11.052;2022-08-01T07:04:53;98178.38;;;21.87;67.06
14273;BME280;7220;49.450;11.052;2022-08-01T07:08:54;98184.56;;;21.98;67.15
14273;BME280;7220;49.450;11.052;2022-08-01T07:12:54;98184.34;;;22.09;66.56
14273;BME280;7220;49.450;11.052;2022-08-01T07:16:55;98185.88;;;22.12;66.07
14273;BME280;7220;49.450;11.052;2022-08-01T07:20:55;98174.75;;;22.15;66.15
14273;BME280;7220;49.450;11.052;2022-08-01T07:24:57;98176.81;;;22.21;65.97
14273;BME280;7220;49.450;11.052;2022-08-01T07:28:58;98180.06;;;22.25;65.62
14273;BME280;7220;49.450;11.052;2022-08-01T07:32:58;98177.56;;;22.31;66.17
14273;BME280;7220;49.450;11.052;2022-08-01T07:36:59;98168.44;;;22.32;65.92
14273;BME280;7220;49.450;11.052;2022-08-01T07:40:59;98160.84;;;22.36;65.77
14273;BME280;7220;49.450;11.052;2022-08-01T07:45:00;98174.53;;;22.52;65.32
14273;BME280;7220;49.450;11.052;2022-08-01T07:49:01;98175.09;;;22.64;65.04
14273;BME280;7220;49.450;11.052;2022-08-01T07:53:01;98180.78;;;22.79;64.56
14273;BME280;7220;49.450;11.052;2022-08-01T07:57:03;98171.34;;;22.92;63.55
14273;BME280;7220;49.450;11.052;2022-08-01T08:01:03;98181.41;;;22.99;63.45
14273;BME280;7220;49.450;11.052;2022-08-01T08:05:04;98173.31;;;23.08;63.03
14273;BME280;7220;49.450;11.052;2022-08-01T08:09:05;98174.66;;;23.12;62.53
14273;BME280;7220;49.450;11.052;2022-08-01T08:13:07;98186.31;;;23.04;62.15
14273;BME280;7220;49.450;11.052;2022-08-01T08:17:07;98193.75;;;23.02;62.02
14273;BME280;7220;49.450;11.052;2022-08-01T08:21:08;98186.97;;;22.98;62.27
14273;BME280;7220;49.450;11.052;2022-08-01T08:25:08;98188.69;;;22.99;62.33
14273;BME280;7220;49.450;11.052;2022-08-01T08:29:09;98184.28;;;22.98;62.37
14273;BME280;7220;49.450;11.052;2022-08-01T08:33:09;98185.34;;;23.13;62.14
14273;BME280;7220;49.450;11.052;2022-08-01T08:37:10;98189.50;;;23.26;61.75
14273;BME280;7220;49.450;11.052;2022-08-01T08:41:10;98176.47;;;23.38;61.07
14273;BME280;7220;49.450;11.052;2022-08-01T08:45:11;98174.97;;;23.43;60.63
14273;BME280;7220;49.450;11.052;2022-08-01T08:49:16;98180.75;;;23.48;59.92
14273;BME280;7220;49.450;11.052;2022-08-01T08:53:18;98173.78;;;23.46;59.26
14273;BME280;7220;49.450;11.052;2022-08-01T08:57:20;98177.69;;;23.43;59.33
14273;BME280;7220;49.450;11.052;2022-08-01T09:01:21;98184.28;;;23.41;59.42
14273;BME280;7220;49.450;11.052;2022-08-01T09:05:23;98182.63;;;23.48;58.95
14273;BME280;7220;49.450;11.052;2022-08-01T09:09:26;98179.06;;;23.64;58.70
14273;BME280;7220;49.450;11.052;2022-08-01T09:13:28;98180.47;;;23.76;58.06
14273;BME280;7220;49.450;11.052;2022-08-01T09:17:39;98181.50;;;23.84;57.96
14273;BME280;7220;49.450;11.052;2022-08-01T09:21:55;98188.63;;;23.85;56.83
14273;BME280;7220;49.450;11.052;2022-08-01T09:25:56;98190.97;;;23.88;56.83
14273;BME280;7220;49.450;11.052;2022-08-01T09:30:10;98188.97;;;23.90;56.89
14273;BME280;7220;49.450;11.052;2022-08-01T09:34:11;98195.63;;;23.96;56.39
14273;BME280;7220;49.450;11.052;2022-08-01T09:38:21;98199.34;;;23.94;55.97
14273;BME280;7220;49.450;11.052;2022-08-01T09:42:26;98201.56;;;23.99;56.29
14273;BME280;7220;49.450;11.052;2022-08-01T09:46:27;98191.41;;;24.09;56.08
14273;BME280;7220;49.450;11.052;2022-08-01T09:50:38;98189.38;;;24.12;55.69
14273;BME280;7220;49.450;11.052;2022-08-01T09:54:40;98192.06;;;24.20;55.56
14273;BME280;7220;49.450;11.052;2022-08-01T09:58:57;98188.69;;;24.34;54.94
14273;BME280;7220;49.450;11.052;2022-08-01T10:02:58;98178.13;;;24.39;53.59
14273;BME280;7220;49.450;11.052;2022-08-01T10:07:05;98181.53;;;24.33;53.40
14273;BME280;7220;49.450;11.052;2022-08-01T10:11:11;98184.41;;;24.32;53.55
14273;BME280;7220;49.450;11.052;2022-08-01T10:15:14;98175.75;;;24.45;51.77
14273;BME280;7220;49.450;11.052;2022-08-01T10:19:16;98168.59;;;24.68;50.62
14273;BME280;7220;49.450;11.052;2022-08-01T10:23:18;98160.91;;;24.80;50.86
14273;BME280;7220;49.450;11.052;2022-08-01T10:27:19;98160.75;;;24.90;50.61
14273;BME280;7220;49.450;11.052;2022-08-01T10:31:20;98173.28;;;24.99;49.57
14273;BME280;7220;49.450;11.052;2022-08-01T10:35:21;98159.31;;;25.02;49.51
14273;BME280;7220;49.450;11.052;2022-08-01T10:39:22;98167.13;;;25.06;49.33
14273;BME280;7220;49.450;11.052;2022-08-01T10:43:25;98158.75;;;25.15;49.74
14273;BME280;7220;49.450;11.052;2022-08-01T10:48:32;98151.19;;;25.34;48.88
14273;BME280;7220;49.450;11.052;2022-08-01T10:51:59;98149.94;;;25.53;47.78
14273;BME280;7220;49.450;11.052;2022-08-01T10:56:02;98150.06;;;25.60;47.40
14273;BME280;7220;49.450;11.052;2022-08-01T11:00:03;98147.41;;;25.75;47.01
14273;BME280;7220;49.450;11.052;2022-08-01T11:08:21;98144.13;;;26.26;44.40
14273;BME280;7220;49.450;11.052;2022-08-01T11:12:38;98131.91;;;26.37;44.27
14273;BME280;7220;49.450;11.052;2022-08-01T11:16:40;98144.16;;;26.41;44.44
14273;BME280;7220;49.450;11.052;2022-08-01T11:20:56;98140.22;;;26.58;44.45
14273;BME280;7220;49.450;11.052;2022-08-01T11:24:57;98139.41;;;27.03;43.11
14273;BME280;7220;49.450;11.052;2022-08-01T11:29:15;98139.19;;;28.14;40.62
14273;BME280;7220;49.450;11.052;2022-08-01T11:33:18;98127.72;;;28.26;40.40
14273;BME280;7220;49.450;11.052;2022-08-01T11:37:24;98123.97;;;27.83;41.35
14273;BME280;7220;49.450;11.052;2022-08-01T11:41:27;98128.19;;;27.86;41.62
14273;BME280;7220;49.450;11.052;2022-08-01T11:45:53;98134.06;;;28.90;39.53
14273;BME280;7220;49.450;11.052;2022-08-01T11:49:56;98124.63;;;28.64;39.95
14273;BME280;7220;49.450;11.052;2022-08-01T11:53:58;98120.19;;;28.28;40.79
14273;BME280;7220;49.450;11.052;2022-08-01T11:58:06;98121.84;;;28.57;40.57
14273;BME280;7220;49.450;11.052;2022-08-01T12:06:29;98117.78;;;28.18;40.77
14273;BME280;7220;49.450;11.052;2022-08-01T12:10:32;98110.97;;;28.07;41.00
14273;BME280;7220;49.450;11.052;2022-08-01T12:14:36;98114.13;;;29.58;38.19
14273;BME280;7220;49.450;11.052;2022-08-01T12:18:40;98106.88;;;29.30;38.80
14273;BME280;7220;49.450;11.052;2022-08-01T12:22:41;98097.81;;;28.74;39.62
14273;BME280;7220;49.450;11.052;2022-08-01T12:26:43;98095.91;;;28.46;40.63
14273;BME280;7220;49.450;11.052;2022-08-01T12:30:47;98099.50;;;28.75;38.87
14273;BME280;7220;49.450;11.052;2022-08-01T12:34:48;98093.72;;;29.05;38.63
14273;BME280;7220;49.450;11.052;2022-08-01T12:38:52;98106.00;;;29.98;37.84
14273;BME280;7220;49.450;11.052;2022-08-01T12:42:57;98091.38;;;30.72;36.64
14273;BME280;7220;49.450;11.052;2022-08-01T12:47:00;98103.03;;;31.33;34.43
14273;BME280;7220;49.450;11.052;2022-08-01T12:51:02;98099.56;;;31.83;33.31
14273;BME280;7220;49.450;11.052;2022-08-01T12:55:09;98093.94;;;31.64;33.13
14273;BME280;7220;49.450;11.052;2022-08-01T12:59:22;98098.34;;;31.40;32.50
14273;BME280;7220;49.450;11.052;2022-08-01T13:03:25;98094.72;;;30.87;34.09
14273;BME280;7220;49.450;11.052;2022-08-01T13:07:46;98098.16;;;30.76;34.05
14273;BME280;7220;49.450;11.052;2022-08-01T13:11:46;98084.88;;;30.46;34.11
14273;BME280;7220;49.450;11.052;2022-08-01T13:15:56;98102.41;;;30.18;35.15
14273;BME280;7220;49.450;11.052;2022-08-01T13:20:03;98099.03;;;30.09;36.63
14273;BME280;7220;49.450;11.052;2022-08-01T13:24:10;98085.50;;;29.67;37.64
14273;BME280;7220;49.450;11.052;2022-08-01T13:28:23;98085.44;;;29.34;38.78
14273;BME280;7220;49.450;11.052;2022-08-01T13:32:24;98087.53;;;29.32;38.29
14273;BME280;7220;49.450;11.052;2022-08-01T13:36:24;98077.97;;;29.14;39.18
14273;BME280;7220;49.450;11.052;2022-08-01T13:40:27;98073.88;;;28.90;39.70
14273;BME280;7220;49.450;11.052;2022-08-01T13:44:27;98079.28;;;28.76;39.00
14273;BME280;7220;49.450;11.052;2022-08-01T13:48:28;98073.13;;;28.68;39.21
14273;BME280;7220;49.450;11.052;2022-08-01T13:52:29;98081.03;;;28.56;40.05
14273;BME280;7220;49.450;11.052;2022-08-01T13:56:30;98063.81;;;28.55;40.13
14273;BME280;7220;49.450;11.052;2022-08-01T14:00:51;98070.31;;;28.54;40.12
14273;BME280;7220;49.450;11.052;2022-08-01T14:04:51;98059.78;;;28.51;40.46
14273;BME280;7220;49.450;11.052;2022-08-01T14:08:52;98062.94;;;28.90;39.24
14273;BME280;7220;49.450;11.052;2022-08-01T14:12:53;98067.41;;;29.04;37.52
14273;BME280;7220;49.450;11.052;2022-08-01T14:16:53;98063.84;;;29.04;37.12
14273;BME280;7220;49.450;11.052;2022-08-01T14:20:53;98079.44;;;29.17;36.71
14273;BME280;7220;49.450;11.052;2022-08-01T14:24:54;98069.38;;;29.17;36.78
14273;BME280;7220;49.450;11.052;2022-08-01T14:28:54;98065.53;;;29.11;36.71
14273;BME280;7220;49.450;11.052;2022-08-01T14:32:55;98078.97;;;29.00;37.09
14273;BME280;7220;49.450;11.052;2022-08-01T14:36:56;98073.75;;;29.11;36.77
14273;BME280;7220;49.450;11.052;2022-08-01T14:40:56;98076.66;;;29.65;35.71
14273;BME280;7220;49.450;11.052;2022-08-01T14:44:57;98073.69;;;29.53;36.45
14273;BME280;7220;49.450;11.052;2022-08-01T14:48:57;98078.13;;;29.61;35.70
14273;BME280;7220;49.450;11.052;2022-08-01T14:52:57;98081.09;;;29.80;35.05
14273;BME280;7220;49.450;11.052;2022-08-01T14:56:58;98073.50;;;29.82;34.37
14273;BME280;7220;49.450;11.052;2022-08-01T15:00:59;98070.16;;;30.06;34.94
14273;BME280;7220;49.450;11.052;2022-08-01T15:05:00;98056.88;;;30.10;34.41
14273;BME280;7220;49.450;11.052;2022-08-01T15:09:01;98077.13;;;30.02;34.45
14273;BME280;7220;49.450;11.052;2022-08-01T15:13:02;98063.00;;;30.12;34.20
14273;BME280;7220;49.450;11.052;2022-08-01T15:17:02;98059.44;;;30.12;34.35
14273;BME280;7220;49.450;11.052;2022-08-01T15:21:03;98063.19;;;30.17;33.60
14273;BME280;7220;49.450;11.052;2022-08-01T15:25:03;98061.28;;;30.31;33.91
14273;BME280;7220;49.450;11.052;2022-08-01T15:29:04;98055.19;;;30.16;34.21
14273;BME280;7220;49.450;11.052;2022-08-01T15:33:05;98072.72;;;30.08;34.04
14273;BME280;7220;49.450;11.052;2022-08-01T15:37:06;98068.69;;;29.97;35.10
14273;BME280;7220;49.450;11.052;2022-08-01T15:41:06;98072.03;;;29.86;34.75
14273;BME280;7220;49.450;11.052;2022-08-01T15:45:07;98063.38;;;29.75;33.98
14273;BME280;7220;49.450;11.052;2022-08-01T15:49:08;98069.91;;;29.61;34.20
14273;BME280;7220;49.450;11.052;2022-08-01T15:53:08;98064.03;;;29.78;33.65
14273;BME280;7220;49.450;11.052;2022-08-01T15:57:09;98063.34;;;29.35;34.97
14273;BME280;7220;49.450;11.052;2022-08-01T16:01:09;98064.50;;;29.12;35.36
14273;BME280;7220;49.450;11.052;2022-08-01T16:05:09;98058.81;;;29.07;36.61
14273;BME280;7220;49.450;11.052;2022-08-01T16:09:10;98067.59;;;28.96;37.32
14273;BME280;7220;49.450;11.052;2022-08-01T16:13:11;98059.56;;;28.88;36.45
14273;BME280;7220;49.450;11.052;2022-08-01T16:17:12;98060.34;;;28.75;36.92
14273;BME280;7220;49.450;11.052;2022-08-01T16:21:12;98064.44;;;28.57;38.32
14273;BME280;7220;49.450;11.052;2022-08-01T16:25:13;98054.47;;;28.43;39.18
14273;BME280;7220;49.450;11.052;2022-08-01T16:29:13;98042.22;;;28.32;39.39
14273;BME280;7220;49.450;11.052;2022-08-01T16:33:14;98046.16;;;28.23;39.64
14273;BME280;7220;49.450;11.052;2022-08-01T16:37:14;98047.34;;;28.13;39.79
14273;BME280;7220;49.450;11.052;2022-08-01T16:41:15;98046.50;;;28.13;40.11
14273;BME280;7220;49.450;11.052;2022-08-01T16:45:15;98051.91;;;28.06;40.90
14273;BME280;7220;49.450;11.052;2022-08-01T16:49:20;98053.06;;;27.97;41.03
14273;BME280;7220;49.450;11.052;2022-08-01T16:53:21;98054.66;;;27.84;41.77
14273;BME280;7220;49.450;11.052;2022-08-01T16:57:22;98065.06;;;27.74;41.53
14273;BME280;7220;49.450;11.052;2022-08-01T17:01:23;98057.41;;;27.63;42.16
14273;BME280;7220;49.450;11.052;2022-08-01T17:05:24;98052.09;;;27.54;42.13
14273;BME280;7220;49.450;11.052;2022-08-01T17:09:26;98055.97;;;27.45;42.53
14273;BME280;7220;49.450;11.052;2022-08-01T17:13:26;98051.00;;;27.34;42.56
14273;BME280;7220;49.450;11.052;2022-08-01T17:17:26;98056.56;;;27.26;43.20
14273;BME280;7220;49.450;11.052;2022-08-01T17:21:27;98058.78;;;27.15;43.11
14273;BME280;7220;49.450;11.052;2022-08-01T17:25:28;98057.59;;;27.03;43.57
14273;BME280;7220;49.450;11.052;2022-08-01T17:29:29;98060.41;;;26.95;43.99
14273;BME280;7220;49.450;11.052;2022-08-01T17:33:29;98066.66;;;26.88;44.28
14273;BME280;7220;49.450;11.052;2022-08-01T17:37:29;98072.94;;;26.74;44.43
14273;BME280;7220;49.450;11.052;2022-08-01T17:41:30;98070.56;;;26.71;44.72
14273;BME280;7220;49.450;11.052;2022-08-01T17:45:30;98069.66;;;26.64;44.76
14273;BME280;7220;49.450;11.052;2022-08-01T17:49:31;98083.00;;;26.58;44.90
14273;BME280;7220;49.450;11.052;2022-08-01T17:53:31;98082.44;;;26.48;45.16
14273;BME280;7220;49.450;11.052;2022-08-01T17:57:32;98095.13;;;26.41;45.05
14273;BME280;7220;49.450;11.052;2022-08-01T18:01:33;98111.53;;;26.33;45.37
14273;BME280;7220;49.450;11.052;2022-08-01T18:05:35;98097.66;;;26.27;45.36
14273;BME280;7220;49.450;11.052;2022-08-01T18:09:36;98095.00;;;26.19;45.47
14273;BME280;7220;49.450;11.052;2022-08-01T18:13:36;98105.22;;;26.17;45.86
14273;BME280;7220;49.450;11.052;2022-08-01T18:17:37;98102.38;;;26.10;46.13
14273;BME280;7220;49.450;11.052;2022-08-01T18:21:37;98107.72;;;26.04;46.49
14273;BME280;7220;49.450;11.052;2022-08-01T18:25:38;98118.19;;;25.92;46.79
14273;BME280;7220;49.450;11.052;2022-08-01T18:29:39;98126.22;;;25.85;47.30
14273;BME280;7220;49.450;11.052;2022-08-01T18:33:39;98111.81;;;25.76;47.77
14273;BME280;7220;49.450;11.052;2022-08-01T18:37:39;98119.22;;;25.67;47.66
14273;BME280;7220;49.450;11.052;2022-08-01T18:41:40;98123.50;;;25.62;47.80
14273;BME280;7220;49.450;11.052;2022-08-01T18:45:40;98114.75;;;25.51;48.08
14273;BME280;7220;49.450;11.052;2022-08-01T18:49:41;98126.31;;;25.45;48.82
14273;BME280;7220;49.450;11.052;2022-08-01T18:53:42;98138.09;;;25.38;48.98
14273;BME280;7220;49.450;11.052;2022-08-01T18:57:42;98141.19;;;25.26;48.93
14273;BME280;7220;49.450;11.052;2022-08-01T19:01:43;98146.69;;;25.18;49.27
14273;BME280;7220;49.450;11.052;2022-08-01T19:05:43;98153.16;;;25.09;49.71
14273;BME280;7220;49.450;11.052;2022-08-01T19:09:44;98160.53;;;25.00;49.89
14273;BME280;7220;49.450;11.052;2022-08-01T19:13:44;98165.81;;;24.93;50.34
14273;BME280;7220;49.450;11.052;2022-08-01T19:17:45;98171.28;;;24.85;51.02
14273;BME280;7220;49.450;11.052;2022-08-01T19:21:46;98169.63;;;24.76;50.96
14273;BME280;7220;49.450;11.052;2022-08-01T19:25:46;98166.56;;;24.70;51.05
14273;BME280;7220;49.450;11.052;2022-08-01T19:29:50;98164.84;;;24.61;51.82
14273;BME280;7220;49.450;11.052;2022-08-01T19:33:52;98169.13;;;24.55;52.12
14273;BME280;7220;49.450;11.052;2022-08-01T19:37:55;98162.50;;;24.50;52.28
14273;BME280;7220;49.450;11.052;2022-08-01T19:41:57;98179.50;;;24.44;52.41
14273;BME280;7220;49.450;11.052;2022-08-01T19:46:03;98177.31;;;24.39;52.63
14273;BME280;7220;49.450;11.052;2022-08-01T19:50:05;98172.53;;;24.33;52.93
14273;BME280;7220;49.450;11.052;2022-08-01T19:54:09;98173.41;;;24.25;53.11
14273;BME280;7220;49.450;11.052;2022-08-01T19:58:10;98173.03;;;24.20;53.32
14273;BME280;7220;49.450;11.052;2022-08-01T20:02:17;98177.31;;;24.14;53.39
14273;BME280;7220;49.450;11.052;2022-08-01T20:06:19;98176.13;;;24.08;54.16
14273;BME280;7220;49.450;11.052;2022-08-01T20:10:19;98177.47;;;24.04;54.39
14273;BME280;7220;49.450;11.052;2022-08-01T20:14:22;98175.25;;;24.00;54.01
14273;BME280;7220;49.450;11.052;2022-08-01T20:18:23;98178.66;;;23.93;54.48
14273;BME280;7220;49.450;11.052;2022-08-01T20:22:29;98163.69;;;23.89;54.38
14273;BME280;7220;49.450;11.052;2022-08-01T20:26:32;98172.34;;;23.85;54.76
14273;BME280;7220;49.450;11.052;2022-08-01T20:30:33;98172.34;;;23.76;55.50
14273;BME280;7220;49.450;11.052;2022-08-01T20:34:35;98182.16;;;23.69;55.42
14273;BME280;7220;49.450;11.052;2022-08-01T20:38:39;98176.72;;;23.61;55.84
14273;BME280;7220;49.450;11.052;2022-08-01T20:42:40;98169.56;;;23.52;55.74
14273;BME280;7220;49.450;11.052;2022-08-01T20:46:43;98172.09;;;23.45;56.45
14273;BME280;7220;49.450;11.052;2022-08-01T20:50:44;98175.28;;;23.40;56.64
14273;BME280;7220;49.450;11.052;2022-08-01T20:55:04;98180.56;;;23.34;57.32
14273;BME280;7220;49.450;11.052;2022-08-01T21:03:19;98196.63;;;23.27;57.05
14273;BME280;7220;49.450;11.052;2022-08-01T21:07:25;98208.13;;;23.21;57.43
14273;BME280;7220;49.450;11.052;2022-08-01T21:11:29;98210.13;;;23.19;57.36
14273;BME280;7220;49.450;11.052;2022-08-01T21:15:43;98218.72;;;23.14;57.82
14273;BME280;7220;49.450;11.052;2022-08-01T21:19:50;98228.88;;;23.12;57.80
14273;BME280;7220;49.450;11.052;2022-08-01T21:23:59;98242.94;;;23.07;58.13
14273;BME280;7220;49.450;11.052;2022-08-01T21:28:03;98233.41;;;23.03;58.13
14273;BME280;7220;49.450;11.052;2022-08-01T21:32:06;98235.75;;;22.98;58.31
14273;BME280;7220;49.450;11.052;2022-08-01T21:36:17;98250.31;;;22.97;58.07
14273;BME280;7220;49.450;11.052;2022-08-01T21:40:20;98241.97;;;22.90;58.41
14273;BME280;7220;49.450;11.052;2022-08-01T21:44:23;98242.97;;;22.89;59.02
14273;BME280;7220;49.450;11.052;2022-08-01T21:48:24;98242.44;;;22.85;59.06
14273;BME280;7220;49.450;11.052;2022-08-01T21:52:32;98243.94;;;22.80;59.26